Ride Results

Yengo (06-08-2006)
Ride distance: 80.0 km

Outcomes - Yengo (06-08-2006)
Division No. of Entries Retired / DNE Completed Withdrawn Ineligible V/O Percentage Completed
HW 8 - 5 1 - 2 62.50%
MW 15 - 10 2 - 3 66.67%
LW 8 - 6 - - 2 75.00%
JN 4 - 3 - - 1 75.00%
Totals 35 - 24 3 - 8 68.57%
Results - Yengo (06-08-2006)
No. Rider Horse Place Time Leg Speeds Total
Km/Hr
H/R bpm
Heavyweight
23 Andrew Bailey Aloha Zelus 1 6:59:00 11.7, 11.1 11.46 40, 41, 53 (Avg:47)
10 John Howe Glen Echo Buddy 2 7:00:00 13.0, 10.1 11.43 35, 39, 44 (Avg:41)
37 Laeli Hogan Follydown Flintstone 3 7:16:00 12.9, 9.5 11.01 33, 37, 46 (Avg:41)
5 Allan Caslick Rosebrae Apollo 4 7:27:00 11.6, 9.9 10.74 38, 43, 57 (Avg:50)
29 Robin Jones Cant'e Tinza 5 8:55:00 9.4, 8.5 8.97 37, 43, 48 (Avg:45)
12 Scott Davenport Alhambra Pierrot Lame L2 0:00:00 16.3, 13.4 - 32, 37, 41 (Avg:39)
15 Frank Mollema Omani Strike A Light Widthdrawn L2 0:00:00 - - 39, 41, 34 (Avg:37)
22 Michelle Slater Cedar Ridge Power 'N' Glory Lame L1 0:00:00 10.9 - 40, 42 (Avg:42)
Middleweight
7 Allana Rempel Claremont Park Breanne 1 6:55:00 13.8, 9.9 11.57 30, 42, 54 (Avg:48)
18 Tracy Haack Sinbad 2 6:57:00 12.4, 10.7 11.51 36, 42, 55 (Avg:48)
24 Annette Bailey Rosemont Pathfinder 3 6:59:00 11.7, 11.1 11.46 37, 36, 55 (Avg:45)
4 Shan Symons Cheeta 4 7:19:00 11.7, 10.2 10.93 30, 38, 47 (Avg:42)
20 Brodie Freeman Eagleridge Sharelle 5 7:23:00 10.9, 10.7 10.84 35, 34, 43 (Avg:38)
19 Brett Willis Cedar Ridge Sovereign 5 7:23:00 10.9, 10.7 10.84 49, 55, 59 (Avg:57)
3 Sandi Brown Gravy Train 7 7:27:00 11.6, 9.9 10.74 30, 37, 44 (Avg:40)
41 Peter Brown Heste Arabique Waterloo 8 7:43:00 11.5, 9.3 10.37 44, 50, 53 (Avg:51)
25 Bernice King Noble Navaar Destiny 9 7:49:00 11.9, 8.9 10.23 35, 40, 56 (Avg:48)
42 Katie Morris Pern 10 9:15:00 9.1, 8.1 8.65 32, 35, 40 (Avg:37)
1 Renee Kirk Cherox Assassin Lame L2 0:00:00 18.1, 16.2 - 36, 49, 59 (Avg:54)
38 Justine Blunt Ningadoo Milan Widthdrawn L1 0:00:00 - - 40, 41 (Avg:41)
30 Robyn Bruce-Macari Ja-Rob Dadee Kool Lame L1 0:00:00 9.4 - 37, 41 (Avg:41)
40 Claudia Reid River Oak Axpression Widthdrawn L1 0:00:00 - - 36, 41 (Avg:41)
2 Karin Santoso Castlebar Musteke Lame L1 0:00:00 15.4 - 32, 44 (Avg:44)
Lightweight
34 Mary Hollingsworth Dante 1 4:34:00 19.1, 16.1 17.52 42, 46, 48 (Avg:47)
26 Gloria Mills Glendos Sabodie 2 4:40:00 18.1, 16.2 17.14 32, 39, 45 (Avg:42)
8 Nicole Dookwah Taliah 3 6:01:00 13.1, 13.4 13.30 32, 44, 46 (Avg:45)
35 Sonya Nicholls Karabil Enna 4 6:41:00 13.0, 11.0 11.97 33, 44, 53 (Avg:48)
32 Jenny Vandervelden Alexeyevna 5 7:49:00 11.9, 8.9 10.23 38, 51, 49 (Avg:50)
28 Wendy Jones Nioka Park Sorceress 6 7:57:00 10.8, 9.3 10.06 36, 41, 44 (Avg:42)
31 Liz McAuley Jindalee Heart Rate L2 0:00:00 11.8, 7.2 - 38, 50, 78 (Avg:64)
36 Felicity Baird Buckwell Park Premonition Lame L1 0:00:00 19.1 - 40, 45 (Avg:45)
Junior
16 Jamie Mollema Billywillinga Rocky 1 4:34:00 17.9, 17.1 17.52 36, 36, 40 (Avg:38)
33 Joshua Vandervelden Mindari Quicksilver 2 7:43:00 11.9, 9.1 10.37 40, 44, 49 (Avg:46)
27 Allix Jones Shellal Cattle King Flyte 3 7:57:00 10.8, 9.3 10.06 36, 44, 48 (Avg:46)
17 Zoe Locke Churinga J'amee Lame L2 0:00:00 17.9, 16.6 - 39, 41, 55 (Avg:48)